Time;durP1;ratioP1;P1;durP2;ratioP2;P2;SDS_P1;SDS_P2;PMS_P1;PMS_P2;Temp;Humidity;BMP_temperature;BMP_pressure;BME280_temperature;BME280_humidity;BME280_pressure;Samples;Min_cycle;Max_cycle;Signal;HPM_P1;HPM_P2
2021/04/19 00:00:13;;;;;;;22.77;18.50;;;9.50;99.90;;;;;;6202224;23;20152;-63
2021/04/19 00:02:42;;;;;;;25.20;18.37;;;9.40;99.90;;;;;;6200325;23;20164;-64
2021/04/19 00:05:11;;;;;;;25.90;20.10;;;9.40;99.90;;;;;;6202163;22;20579;-63
2021/04/19 00:07:36;;;;;;;23.00;18.07;;;9.40;99.90;;;;;;6203456;23;20527;-64
2021/04/19 00:10:04;;;;;;;23.80;19.23;;;9.40;99.90;;;;;;6200044;23;20653;-64
2021/04/19 00:12:29;;;;;;;24.37;19.30;;;9.40;99.90;;;;;;6173582;23;20259;-64
2021/04/19 00:14:55;;;;;;;27.40;19.60;;;9.40;99.90;;;;;;6201831;22;20618;-65
2021/04/19 00:17:21;;;;;;;24.30;18.80;;;9.30;99.90;;;;;;6204642;23;20307;-65
2021/04/19 00:19:46;;;;;;;24.20;19.27;;;9.30;99.90;;;;;;6176616;23;20164;-64
2021/04/19 00:22:12;;;;;;;26.20;19.67;;;9.30;99.90;;;;;;6198373;23;20576;-64
2021/04/19 00:24:40;;;;;;;26.03;20.53;;;9.30;99.90;;;;;;6198986;22;20207;-64
2021/04/19 00:27:06;;;;;;;28.50;20.63;;;9.20;99.90;;;;;;6195741;23;20201;-65
2021/04/19 00:29:31;;;;;;;25.13;18.70;;;9.20;99.90;;;;;;6180280;23;20920;-64
2021/04/19 00:31:59;;;;;;;22.23;18.50;;;9.20;99.90;;;;;;6208097;23;20584;-64
2021/04/19 00:34:25;;;;;;;25.53;19.53;;;9.10;99.90;;;;;;6197673;22;20256;-65
2021/04/19 00:36:51;;;;;;;27.37;20.23;;;9.10;99.90;;;;;;6203621;23;20602;-64
2021/04/19 00:39:16;;;;;;;25.73;20.10;;;9.10;99.90;;;;;;6200096;23;20579;-64
2021/04/19 00:41:43;;;;;;;24.27;20.63;;;9.00;99.90;;;;;;6177549;23;20164;-65
2021/04/19 00:44:09;;;;;;;29.20;20.27;;;9.10;99.90;;;;;;6197424;22;20188;-65
2021/04/19 00:46:35;;;;;;;23.97;20.33;;;9.10;99.90;;;;;;6172981;23;21114;-65
2021/04/19 00:49:03;;;;;;;32.57;21.87;;;9.10;99.90;;;;;;6199704;23;20233;-63
2021/04/19 00:51:31;;;;;;;27.40;20.40;;;9.20;99.90;;;;;;6194837;23;20544;-62
2021/04/19 00:53:56;;;;;;;24.83;20.07;;;9.10;99.90;;;;;;6196056;22;20615;-61
2021/04/19 00:56:23;;;;;;;27.97;21.43;;;9.10;99.90;;;;;;6200186;23;20930;-62
2021/04/19 00:58:48;;;;;;;30.23;20.40;;;9.20;99.90;;;;;;6171496;23;20498;-62
2021/04/19 01:01:15;;;;;;;28.67;21.33;;;9.10;99.90;;;;;;6194217;23;20540;-63
2021/04/19 01:03:42;;;;;;;29.30;21.47;;;9.10;99.90;;;;;;6171346;23;20191;-61
2021/04/19 01:06:09;;;;;;;27.87;22.43;;;9.10;99.90;;;;;;6195620;22;21292;-63
2021/04/19 01:08:35;;;;;;;30.03;20.97;;;9.10;99.90;;;;;;6171475;23;20601;-63
2021/04/19 01:11:01;;;;;;;26.63;21.60;;;9.20;99.90;;;;;;6194909;23;20647;-63
2021/04/19 01:13:26;;;;;;;25.50;19.80;;;9.20;99.90;;;;;;6191023;23;20468;-60
2021/04/19 01:15:52;;;;;;;31.80;21.30;;;9.10;99.90;;;;;;6195649;22;20347;-60
2021/04/19 01:18:18;;;;;;;27.37;20.63;;;9.00;99.90;;;;;;6199732;23;20175;-61
2021/04/19 01:20:46;;;;;;;28.87;22.30;;;9.00;99.90;;;;;;6174099;23;20571;-61
2021/04/19 01:23:13;;;;;;;30.83;22.00;;;8.90;99.90;;;;;;6197903;23;20187;-60
2021/04/19 01:25:40;;;;;;;29.00;21.43;;;8.90;99.90;;;;;;6196942;22;20813;-61
2021/04/19 01:28:06;;;;;;;30.97;21.90;;;8.90;99.90;;;;;;6191423;23;20609;-65
2021/04/19 01:30:41;;;;;;;26.40;22.23;;;8.90;99.90;;;;;;6198050;23;20547;-63
2021/04/19 01:33:06;;;;;;;25.57;21.03;;;8.80;99.90;;;;;;6175093;23;20622;-64
2021/04/19 01:35:33;;;;;;;29.03;21.83;;;8.80;99.90;;;;;;6179218;22;20916;-65
2021/04/19 01:37:58;;;;;;;28.67;21.43;;;8.80;99.90;;;;;;6211436;23;20159;-64
2021/04/19 01:40:24;;;;;;;25.27;20.60;;;8.80;99.90;;;;;;6201207;23;20540;-64
2021/04/19 01:42:50;;;;;;;28.47;21.00;;;8.90;99.90;;;;;;6201865;23;20492;-64
2021/04/19 01:45:17;;;;;;;27.00;21.27;;;8.90;99.90;;;;;;6173212;22;20199;-65
2021/04/19 01:47:43;;;;;;;28.10;21.43;;;8.90;99.90;;;;;;6172551;23;20625;-64
2021/04/19 01:50:12;;;;;;;32.20;22.37;;;8.90;99.90;;;;;;6198881;23;20993;-64
2021/04/19 01:52:37;;;;;;;30.20;21.47;;;8.80;99.90;;;;;;6199492;23;20596;-63
2021/04/19 01:55:12;;;;;;;32.93;22.20;;;8.90;99.90;;;;;;6198215;22;20598;-63
2021/04/19 01:57:40;;;;;;;28.03;21.97;;;8.90;99.90;;;;;;6176551;23;20152;-62
2021/04/19 02:00:08;;;;;;;30.80;23.10;;;8.80;99.90;;;;;;6199178;23;21259;-65
2021/04/19 02:03:02;;;;;;;33.33;24.57;;;8.80;99.90;;;;;;6174448;23;20680;-63
2021/04/19 02:05:55;;;;;;;31.60;22.57;;;8.80;99.90;;;;;;6170834;22;20623;-64
2021/04/19 02:08:52;;;;;;;30.27;22.93;;;8.80;99.90;;;;;;6197848;23;21011;-63
2021/04/19 02:11:42;;;;;;;30.47;23.20;;;8.80;99.90;;;;;;6171661;23;20568;-63
2021/04/19 02:14:34;;;;;;;31.50;23.90;;;8.80;99.90;;;;;;6200923;22;20551;-67
2021/04/19 02:17:05;;;;;;;29.30;23.03;;;8.80;99.90;;;;;;6176885;23;21066;-63
2021/04/19 02:19:37;;;;;;;30.77;23.70;;;8.80;99.90;;;;;;6200182;23;20527;-63
2021/04/19 02:22:44;;;;;;;33.00;24.43;;;8.80;99.90;;;;;;6202291;23;20503;-64
2021/04/19 02:25:33;;;;;;;29.57;23.50;;;8.90;99.90;;;;;;6136929;22;20870;-64
2021/04/19 02:28:03;;;;;;;30.27;24.13;;;8.80;99.90;;;;;;6201113;22;20610;-64
2021/04/19 02:30:36;;;;;;;36.00;25.53;;;8.90;99.90;;;;;;6171505;23;20566;-64
2021/04/19 02:33:03;;;;;;;31.63;23.50;;;8.80;99.90;;;;;;6174913;23;20984;-64
2021/04/19 02:35:32;;;;;;;34.47;24.70;;;8.80;99.90;;;;;;6203294;22;20636;-64
2021/04/19 02:37:59;;;;;;;32.63;25.63;;;8.90;99.90;;;;;;6198276;23;21080;-65
2021/04/19 02:40:29;;;;;;;33.30;24.20;;;8.90;99.90;;;;;;6174208;23;20616;-66
2021/04/19 02:42:56;;;;;;;32.03;25.63;;;8.90;99.90;;;;;;6178082;23;20571;-64
2021/04/19 02:45:25;;;;;;;30.63;23.37;;;8.90;99.90;;;;;;6198405;22;21226;-65
2021/04/19 02:47:51;;;;;;;33.53;25.50;;;8.80;99.90;;;;;;6204377;23;20813;-64
2021/04/19 02:50:22;;;;;;;32.53;24.40;;;8.90;99.90;;;;;;6200087;23;20654;-65
2021/04/19 02:52:51;;;;;;;32.23;25.10;;;8.80;99.90;;;;;;6203810;23;20571;-64
2021/04/19 02:55:23;;;;;;;31.93;24.80;;;8.80;99.90;;;;;;6171202;22;20623;-64
2021/04/19 02:57:53;;;;;;;34.00;24.83;;;8.80;99.90;;;;;;6201466;23;20591;-64
2021/04/19 03:00:21;;;;;;;34.03;25.23;;;8.80;99.90;;;;;;6175591;23;20567;-65
2021/04/19 03:02:49;;;;;;;31.83;24.80;;;8.80;99.90;;;;;;6176787;23;20637;-64
2021/04/19 03:05:16;;;;;;;35.47;24.73;;;8.80;99.90;;;;;;6202170;22;20621;-64
2021/04/19 03:07:52;;;;;;;34.10;25.60;;;8.80;99.90;;;;;;6204724;22;20639;-65
2021/04/19 03:10:19;;;;;;;31.73;24.97;;;8.80;99.90;;;;;;6201214;23;21197;-64
2021/04/19 03:12:52;;;;;;;37.73;25.90;;;8.80;99.90;;;;;;6174356;23;20595;-65
2021/04/19 03:15:26;;;;;;;32.77;24.20;;;8.70;99.90;;;;;;6203380;22;20591;-66
2021/04/19 03:17:57;;;;;;;32.60;24.77;;;8.70;99.90;;;;;;6204680;23;21102;-64
2021/04/19 03:20:25;;;;;;;32.80;24.70;;;8.70;99.90;;;;;;6173680;23;20570;-64
2021/04/19 03:22:54;;;;;;;30.03;23.93;;;8.80;99.90;;;;;;6204599;23;20659;-64
2021/04/19 03:25:23;;;;;;;29.73;23.77;;;8.80;99.90;;;;;;6196607;22;20636;-64
2021/04/19 03:27:51;;;;;;;31.80;24.37;;;8.70;99.90;;;;;;6203705;23;21124;-64
2021/04/19 03:30:17;;;;;;;30.77;24.23;;;8.80;99.90;;;;;;6177097;23;20628;-63
2021/04/19 03:32:51;;;;;;;36.50;25.97;;;8.80;99.90;;;;;;6201045;23;20576;-65
2021/04/19 03:35:22;;;;;;;34.33;25.03;;;8.80;99.90;;;;;;6200099;22;20601;-64
2021/04/19 03:37:50;;;;;;;33.90;23.93;;;8.70;99.90;;;;;;6200653;23;20511;-64
2021/04/19 03:40:33;;;;;;;34.70;26.20;;;8.80;99.90;;;;;;6203093;23;20544;-65
2021/04/19 03:43:07;;;;;;;32.63;24.47;;;8.70;99.90;;;;;;6206379;23;21271;-64
2021/04/19 03:45:37;;;;;;;34.80;25.20;;;8.70;99.90;;;;;;6201204;22;20605;-65
2021/04/19 03:48:22;;;;;;;38.13;27.47;;;8.70;99.90;;;;;;6176453;23;20616;-64
2021/04/19 03:51:09;;;;;;;31.27;23.73;;;8.60;99.90;;;;;;6200385;23;20500;-64
2021/04/19 03:53:37;;;;;;;32.57;24.10;;;8.60;99.90;;;;;;6200695;23;21087;-63
2021/04/19 03:56:04;;;;;;;32.10;24.70;;;8.60;99.90;;;;;;6200720;22;20595;-64
2021/04/19 03:58:33;;;;;;;33.40;23.63;;;8.60;99.90;;;;;;6202379;23;20534;-65
2021/04/19 04:01:03;;;;;;;35.33;25.90;;;8.60;99.90;;;;;;6198324;23;21020;-63
2021/04/19 04:03:30;;;;;;;35.10;26.10;;;8.60;99.90;;;;;;6201554;23;20574;-64
2021/04/19 04:05:58;;;;;;;36.43;26.07;;;8.60;99.90;;;;;;6200213;22;20591;-64
2021/04/19 04:08:25;;;;;;;32.57;25.20;;;8.60;99.90;;;;;;6177141;23;20638;-65
2021/04/19 04:10:51;;;;;;;34.77;25.60;;;8.60;99.90;;;;;;6201716;23;20592;-64
2021/04/19 04:13:20;;;;;;;37.30;26.27;;;8.60;99.90;;;;;;6176247;23;20702;-64
2021/04/19 04:15:59;;;;;;;33.90;25.17;;;8.60;99.90;;;;;;6197826;22;20595;-64
2021/04/19 04:18:27;;;;;;;33.00;24.97;;;8.60;99.90;;;;;;6203028;22;21039;-64
2021/04/19 04:20:53;;;;;;;35.23;24.97;;;8.60;99.90;;;;;;6199217;23;20567;-64
2021/04/19 04:23:19;;;;;;;34.77;23.60;;;8.60;99.90;;;;;;6195036;23;20567;-64
2021/04/19 04:25:45;;;;;;;37.23;28.33;;;8.60;99.90;;;;;;6200673;22;20599;-64
2021/04/19 04:28:12;;;;;;;34.37;26.00;;;8.60;99.90;;;;;;6307375;22;21066;-65
2021/04/19 04:30:38;;;;;;;37.47;25.73;;;8.60;99.90;;;;;;6199113;23;20572;-63
2021/04/19 04:33:05;;;;;;;37.77;27.10;;;8.60;99.90;;;;;;6201484;23;20579;-63
2021/04/19 04:35:32;;;;;;;35.17;26.60;;;8.60;99.90;;;;;;6200776;22;20670;-64
2021/04/19 04:37:58;;;;;;;36.90;26.40;;;8.60;99.90;;;;;;6205802;23;20548;-63
2021/04/19 04:40:25;;;;;;;38.20;27.03;;;8.50;99.90;;;;;;6178623;23;20563;-63
2021/04/19 04:42:56;;;;;;;34.77;25.53;;;8.50;99.90;;;;;;6178136;23;20571;-64
2021/04/19 04:45:23;;;;;;;37.33;25.57;;;8.50;99.90;;;;;;6204764;22;20590;-63
2021/04/19 04:47:58;;;;;;;35.03;25.80;;;8.50;99.90;;;;;;6202075;23;20543;-65
2021/04/19 04:50:37;;;;;;;37.50;26.50;;;8.50;99.90;;;;;;6202127;23;20506;-64
2021/04/19 04:53:10;;;;;;;36.80;25.67;;;8.50;99.90;;;;;;6194035;23;20929;-63
2021/04/19 04:55:38;;;;;;;40.50;28.30;;;8.50;99.90;;;;;;6304465;22;20926;-63
2021/04/19 04:58:06;;;;;;;37.30;28.07;;;8.40;99.90;;;;;;6174132;23;20566;-63
2021/04/19 05:00:32;;;;;;;37.07;27.33;;;8.40;99.90;;;;;;6198420;23;20842;-65
2021/04/19 05:03:00;;;;;;;36.50;26.20;;;8.40;99.90;;;;;;6174832;23;20971;-63
2021/04/19 05:05:26;;;;;;;34.03;26.87;;;8.50;99.90;;;;;;6195407;22;20583;-63
2021/04/19 05:07:54;;;;;;;32.23;23.83;;;8.40;99.90;;;;;;6175439;23;20590;-59
2021/04/19 05:10:22;;;;;;;31.50;23.43;;;8.40;99.90;;;;;;6198772;23;20510;-61
2021/04/19 05:12:47;;;;;;;29.30;22.77;;;8.40;99.90;;;;;;6202414;23;20568;-61
2021/04/19 05:15:13;;;;;;;29.43;21.47;;;8.40;99.90;;;;;;6182957;22;20583;-62
2021/04/19 05:17:46;;;;;;;27.40;21.17;;;8.40;99.90;;;;;;6194544;23;20195;-61
2021/04/19 05:20:14;;;;;;;26.20;20.93;;;8.40;99.90;;;;;;6171945;23;20555;-60
2021/04/19 05:22:41;;;;;;;28.07;19.57;;;8.30;99.90;;;;;;6269035;22;20974;-62
2021/04/19 05:25:07;;;;;;;25.83;18.20;;;8.30;99.90;;;;;;6196024;22;20587;-62
2021/04/19 05:27:33;;;;;;;25.30;18.80;;;8.30;99.90;;;;;;6173473;23;20636;-62
2021/04/19 05:29:59;;;;;;;24.37;18.50;;;8.30;99.90;;;;;;6189196;23;20609;-63
2021/04/19 05:32:27;;;;;;;26.47;19.40;;;8.30;99.90;;;;;;6152290;22;20633;-65
2021/04/19 05:34:53;;;;;;;30.47;19.50;;;8.30;99.90;;;;;;6195798;22;21049;-66
2021/04/19 05:37:19;;;;;;;24.70;18.80;;;8.30;99.90;;;;;;6356654;22;20567;-65
2021/04/19 05:39:48;;;;;;;25.60;19.33;;;8.30;99.90;;;;;;6221384;22;20546;-66
2021/04/19 05:42:14;;;;;;;22.13;17.70;;;8.30;99.90;;;;;;6320600;22;20218;-65
2021/04/19 05:44:41;;;;;;;21.40;16.60;;;8.30;99.90;;;;;;6289601;22;20603;-66
2021/04/19 05:47:08;;;;;;;23.27;17.17;;;8.30;99.90;;;;;;6188683;23;20544;-67
2021/04/19 05:49:35;;;;;;;21.13;16.80;;;8.30;99.90;;;;;;6293617;22;20603;-66
2021/04/19 05:54:37;;;;;;;22.30;17.97;;;8.40;99.90;;;;;;6297017;22;20601;-65
2021/04/19 05:57:06;;;;;;;23.60;17.70;;;8.40;99.90;;;;;;6387549;22;20594;-65
2021/04/19 05:59:49;;;;;;;24.53;18.13;;;8.40;99.90;;;;;;6359543;22;20564;-66
2021/04/19 06:02:41;;;;;;;20.50;16.10;;;8.40;99.90;;;;;;6389458;22;20499;-66
2021/04/19 06:05:48;;;;;;;21.50;15.70;;;8.40;99.90;;;;;;6330333;22;20587;-65
2021/04/19 06:08:23;;;;;;;24.63;17.90;;;8.40;99.90;;;;;;6290116;22;20548;-68
2021/04/19 06:10:58;;;;;;;23.23;16.50;;;8.40;99.90;;;;;;6336299;22;21086;-68
2021/04/19 06:13:26;;;;;;;23.30;17.20;;;8.50;99.90;;;;;;6354198;22;20630;-68
2021/04/19 06:15:53;;;;;;;22.93;16.60;;;8.40;99.90;;;;;;6354870;22;20586;-68
2021/04/19 06:18:21;;;;;;;22.77;15.43;;;8.40;99.90;;;;;;6356095;22;21053;-65
2021/04/19 06:20:53;;;;;;;20.87;15.30;;;8.40;99.90;;;;;;6357778;22;20527;-66
2021/04/19 06:23:20;;;;;;;23.87;16.80;;;8.30;99.90;;;;;;6328166;22;20594;-66
2021/04/19 06:25:45;;;;;;;22.43;15.93;;;8.40;99.90;;;;;;6324321;22;20593;-66
2021/04/19 06:28:11;;;;;;;25.03;17.77;;;8.40;99.90;;;;;;6352730;22;20886;-66
2021/04/19 06:30:42;;;;;;;21.70;15.87;;;8.40;99.90;;;;;;6356265;22;20443;-66
2021/04/19 06:33:13;;;;;;;24.40;16.50;;;8.40;99.90;;;;;;6325340;22;20176;-66
2021/04/19 06:35:39;;;;;;;25.00;17.80;;;8.40;99.90;;;;;;6348997;22;20591;-66
2021/04/19 06:38:04;;;;;;;25.47;17.43;;;8.50;99.90;;;;;;6352876;22;20871;-64
2021/04/19 06:40:31;;;;;;;21.10;15.83;;;8.50;99.90;;;;;;6327039;22;20160;-64
2021/04/19 06:42:57;;;;;;;21.70;15.93;;;8.50;99.90;;;;;;6352646;22;20157;-65
2021/04/19 06:45:26;;;;;;;18.53;14.93;;;8.50;99.90;;;;;;6352881;22;20596;-65
2021/04/19 06:47:53;;;;;;;23.30;15.60;;;8.60;99.90;;;;;;6355286;22;20523;-68
2021/04/19 06:50:18;;;;;;;23.20;15.70;;;8.60;99.90;;;;;;6326108;22;21004;-67
2021/04/19 06:52:47;;;;;;;22.03;14.67;;;8.70;99.90;;;;;;6357565;22;20556;-65
2021/04/19 06:55:15;;;;;;;22.00;15.87;;;8.70;99.90;;;;;;6354301;22;20200;-68
2021/04/19 06:57:44;;;;;;;20.50;16.67;;;8.70;99.90;;;;;;6349307;22;20937;-68
2021/04/19 07:00:11;;;;;;;22.17;15.97;;;8.80;99.90;;;;;;6372472;22;20938;-67
2021/04/19 07:02:46;;;;;;;21.43;16.00;;;8.80;99.90;;;;;;6353617;22;20607;-68
2021/04/19 07:05:12;;;;;;;18.67;14.07;;;8.80;99.90;;;;;;6356558;22;20586;-67
2021/04/19 07:07:51;;;;;;;20.93;15.60;;;8.80;99.90;;;;;;6359108;22;20522;-68
2021/04/19 07:10:18;;;;;;;22.53;17.00;;;8.90;99.90;;;;;;6326216;22;20573;-68
2021/04/19 07:12:45;;;;;;;21.93;14.90;;;8.90;99.90;;;;;;6351321;22;20530;-68
2021/04/19 07:15:15;;;;;;;24.90;16.70;;;8.90;99.90;;;;;;6322371;22;20597;-68
2021/04/19 07:17:40;;;;;;;24.67;17.00;;;8.90;99.90;;;;;;6357899;22;20622;-67
2021/04/19 07:20:09;;;;;;;23.63;16.40;;;9.00;99.90;;;;;;6329780;22;20736;-65
2021/04/19 07:22:35;;;;;;;24.70;16.70;;;9.00;99.90;;;;;;6354446;22;20164;-66
2021/04/19 07:25:02;;;;;;;22.37;16.13;;;9.00;99.90;;;;;;6326893;22;21122;-65
2021/04/19 07:27:30;;;;;;;23.40;17.20;;;9.10;99.90;;;;;;6358248;22;20567;-66
2021/04/19 07:29:56;;;;;;;22.63;16.30;;;9.20;99.90;;;;;;6328886;22;20606;-66
2021/04/19 07:32:36;;;;;;;26.37;18.70;;;9.20;99.90;;;;;;6351722;22;20904;-66
2021/04/19 07:35:07;;;;;;;24.87;17.47;;;9.20;99.90;;;;;;6307586;22;20216;-65
2021/04/19 07:37:36;;;;;;;23.90;17.33;;;9.10;99.90;;;;;;6297254;22;20552;-65
2021/04/19 07:40:03;;;;;;;23.93;18.17;;;9.20;99.90;;;;;;6295254;22;20660;-66
2021/04/19 07:42:29;;;;;;;26.03;18.30;;;9.20;99.90;;;;;;6323031;22;20822;-65
2021/04/19 07:44:55;;;;;;;23.30;17.97;;;9.20;99.90;;;;;;6294767;22;20595;-65
2021/04/19 07:47:24;;;;;;;23.43;16.93;;;9.30;99.90;;;;;;6319887;22;20528;-64
2021/04/19 07:50:02;;;;;;;25.27;18.57;;;9.30;99.90;;;;;;6322180;22;20582;-64
2021/04/19 07:52:29;;;;;;;27.77;18.27;;;9.40;99.90;;;;;;6296160;22;20628;-66
2021/04/19 07:55:16;;;;;;;25.40;17.33;;;9.50;99.90;;;;;;6309301;22;20648;-64
2021/04/19 07:57:45;;;;;;;26.57;18.13;;;9.50;99.90;;;;;;6317456;22;21625;-66
2021/04/19 08:00:22;;;;;;;25.50;18.90;;;9.60;99.90;;;;;;6323603;22;20536;-65
2021/04/19 08:03:15;;;;;;;26.27;17.83;;;9.60;99.90;;;;;;6319395;22;20579;-66
2021/04/19 08:05:52;;;;;;;25.40;18.50;;;9.60;99.90;;;;;;6317643;22;21143;-66
2021/04/19 08:08:27;;;;;;;25.60;16.60;;;9.70;99.90;;;;;;6323445;22;20815;-65
2021/04/19 08:11:15;;;;;;;27.17;18.27;;;9.70;99.90;;;;;;6321411;22;20583;-65
2021/04/19 08:13:42;;;;;;;22.60;16.57;;;9.80;99.90;;;;;;6322285;22;20579;-65
2021/04/19 08:16:24;;;;;;;24.80;18.30;;;9.90;99.90;;;;;;6323152;22;20587;-66
2021/04/19 08:18:50;;;;;;;23.90;17.47;;;9.90;99.90;;;;;;6324587;22;20998;-66
2021/04/19 08:21:26;;;;;;;21.93;16.20;;;10.00;99.90;;;;;;6318411;22;20669;-66
2021/04/19 08:23:52;;;;;;;25.27;17.90;;;10.00;99.90;;;;;;6323582;22;20581;-66
2021/04/19 08:26:18;;;;;;;22.63;16.90;;;10.00;99.90;;;;;;6323832;22;20597;-65
2021/04/19 08:28:48;;;;;;;20.77;16.50;;;10.10;99.90;;;;;;6317797;22;20579;-65
2021/04/19 08:31:15;;;;;;;22.00;16.80;;;10.10;99.90;;;;;;6321250;22;20142;-66
2021/04/19 08:33:45;;;;;;;26.37;18.77;;;10.20;99.90;;;;;;6322430;22;20571;-66
2021/04/19 08:36:12;;;;;;;24.57;17.87;;;10.20;99.90;;;;;;6319859;22;20687;-66
2021/04/19 08:38:38;;;;;;;22.80;17.37;;;10.30;99.90;;;;;;6326773;22;20562;-65
2021/04/19 08:41:04;;;;;;;23.63;18.17;;;10.40;99.90;;;;;;6324956;22;21119;-66
2021/04/19 08:43:33;;;;;;;23.00;17.70;;;10.60;99.90;;;;;;6320181;22;20178;-68
2021/04/19 08:46:00;;;;;;;23.63;18.07;;;10.60;99.90;;;;;;6322072;22;20648;-68
2021/04/19 08:48:28;;;;;;;24.80;19.77;;;10.70;99.90;;;;;;6322601;22;20964;-67
2021/04/19 08:50:54;;;;;;;24.27;18.60;;;10.80;99.90;;;;;;6328173;22;20574;-67
2021/04/19 08:53:20;;;;;;;21.60;17.40;;;10.80;99.90;;;;;;6329612;22;20666;-67
2021/04/19 08:55:47;;;;;;;22.30;17.97;;;10.90;99.90;;;;;;6327073;22;20196;-67
2021/04/19 08:58:15;;;;;;;23.57;18.37;;;11.00;99.90;;;;;;6357613;22;20846;-69
2021/04/19 09:00:43;;;;;;;22.53;17.40;;;11.00;99.90;;;;;;6353026;22;20527;-69
2021/04/19 09:03:11;;;;;;;22.30;17.57;;;11.00;99.90;;;;;;6331450;22;20656;-68
2021/04/19 09:05:37;;;;;;;23.10;17.93;;;11.00;99.90;;;;;;6357749;22;20591;-67
2021/04/19 09:08:12;;;;;;;22.70;18.00;;;11.10;99.90;;;;;;6356337;22;21106;-68
2021/04/19 09:10:54;;;;;;;22.77;17.77;;;11.20;99.90;;;;;;6356931;22;20538;-67
2021/04/19 09:13:42;;;;;;;19.60;16.23;;;11.30;99.90;;;;;;6352219;22;20925;-67
2021/04/19 09:16:24;;;;;;;19.07;15.90;;;11.30;99.90;;;;;;6303268;22;20768;-69
2021/04/19 09:18:52;;;;;;;20.33;17.23;;;11.50;99.90;;;;;;6327073;22;20661;-68
2021/04/19 09:21:36;;;;;;;20.40;16.93;;;11.60;99.90;;;;;;6328243;22;20571;-68
2021/04/19 09:24:03;;;;;;;21.57;17.30;;;11.70;99.90;;;;;;6352457;22;20570;-68
2021/04/19 09:26:51;;;;;;;19.37;15.43;;;11.80;99.90;;;;;;6324679;22;20657;-68
2021/04/19 09:29:27;;;;;;;21.23;17.20;;;11.90;99.90;;;;;;6326409;22;20970;-68
2021/04/19 09:32:03;;;;;;;21.77;19.20;;;11.90;99.90;;;;;;6330058;22;20683;-67
2021/04/19 09:34:42;;;;;;;20.90;17.03;;;12.00;99.90;;;;;;6323969;22;20579;-68
2021/04/19 09:37:22;;;;;;;21.03;17.70;;;12.10;99.90;;;;;;6324738;22;21082;-68
2021/04/19 09:39:53;;;;;;;19.70;16.00;;;12.10;99.90;;;;;;6324631;22;20567;-69
2021/04/19 09:42:54;;;;;;;19.23;16.00;;;12.20;99.90;;;;;;6325503;22;20982;-67
2021/04/19 09:45:41;;;;;;;19.07;16.00;;;12.40;99.90;;;;;;6353581;22;20763;-68
2021/04/19 09:48:27;;;;;;;20.17;16.27;;;12.50;99.90;;;;;;6356386;22;20703;-68
2021/04/19 09:50:58;;;;;;;19.40;16.30;;;12.60;99.90;;;;;;6347076;22;20570;-70
2021/04/19 09:53:27;;;;;;;20.53;17.27;;;12.70;99.90;;;;;;6367315;22;20575;-69
2021/04/19 09:55:53;;;;;;;17.37;15.43;;;12.80;99.90;;;;;;6375883;22;20575;-68
2021/04/19 09:58:19;;;;;;;19.13;17.13;;;12.80;99.90;;;;;;6363801;22;21327;-68
2021/04/19 10:00:55;;;;;;;19.27;16.67;;;12.90;99.90;;;;;;6329075;22;20176;-68
2021/04/19 10:03:21;;;;;;;18.83;16.90;;;12.90;99.90;;;;;;6326273;22;20586;-68
2021/04/19 10:05:49;;;;;;;21.97;17.03;;;12.90;99.90;;;;;;6355808;22;20684;-68
2021/04/19 10:08:16;;;;;;;19.30;17.13;;;13.00;99.90;;;;;;6356568;22;20167;-68
2021/04/19 10:10:43;;;;;;;19.20;16.50;;;13.20;99.90;;;;;;6354514;22;20958;-67
2021/04/19 10:13:09;;;;;;;21.77;16.43;;;13.30;99.90;;;;;;6355632;22;20569;-67
2021/04/19 10:15:34;;;;;;;18.80;16.03;;;13.30;99.90;;;;;;6351313;22;21160;-68
2021/04/19 10:18:10;;;;;;;18.60;15.63;;;13.50;99.90;;;;;;6353616;22;20244;-68
2021/04/19 10:20:37;;;;;;;19.00;17.00;;;13.50;99.90;;;;;;6326689;22;20269;-68
2021/04/19 10:23:11;;;;;;;18.87;16.37;;;13.70;99.90;;;;;;6357656;22;20573;-68
2021/04/19 10:25:47;;;;;;;21.40;17.30;;;13.70;99.90;;;;;;6350536;22;20522;-68
2021/04/19 10:28:35;;;;;;;21.40;17.87;;;13.80;99.90;;;;;;6326208;22;20551;-68
2021/04/19 10:31:19;;;;;;;17.77;15.90;;;14.00;99.90;;;;;;6324979;22;20956;-68
2021/04/19 10:33:46;;;;;;;18.80;16.80;;;14.10;99.90;;;;;;6320808;22;20601;-68
2021/04/19 10:36:16;;;;;;;20.47;18.27;;;14.20;99.90;;;;;;6350288;22;20668;-68
2021/04/19 10:38:44;;;;;;;18.37;16.47;;;14.30;99.90;;;;;;6347304;22;20618;-68
2021/04/19 10:41:10;;;;;;;18.47;16.50;;;14.40;99.90;;;;;;6322943;22;20849;-68
2021/04/19 10:43:37;;;;;;;19.50;17.53;;;14.50;99.90;;;;;;6350901;22;20617;-68
2021/04/19 10:46:19;;;;;;;20.43;18.40;;;14.60;99.90;;;;;;6328570;22;20645;-68
2021/04/19 10:48:44;;;;;;;20.23;18.03;;;14.70;99.90;;;;;;6326965;22;21065;-68
2021/04/19 10:51:22;;;;;;;17.80;16.00;;;14.80;99.90;;;;;;6359608;22;20588;-68
2021/04/19 10:53:50;;;;;;;18.93;16.97;;;14.90;99.90;;;;;;6324663;22;20196;-69
2021/04/19 10:56:21;;;;;;;19.30;17.40;;;15.00;99.90;;;;;;6357881;22;20587;-68
2021/04/19 10:58:49;;;;;;;18.47;16.67;;;15.10;99.90;;;;;;6327283;22;20644;-69
2021/04/19 11:01:27;;;;;;;18.80;16.90;;;15.30;99.90;;;;;;6357286;22;20523;-68
2021/04/19 11:03:53;;;;;;;18.07;16.17;;;15.40;99.90;;;;;;6349695;22;20566;-69
2021/04/19 11:06:22;;;;;;;17.73;15.67;;;15.50;99.90;;;;;;6350776;22;20889;-69
2021/04/19 11:09:05;;;;;;;17.87;16.07;;;15.70;99.90;;;;;;6326928;22;20616;-68
2021/04/19 11:11:36;;;;;;;17.70;16.00;;;15.70;99.90;;;;;;6320332;22;20579;-69
2021/04/19 11:14:23;;;;;;;17.73;16.03;;;15.90;99.90;;;;;;6348108;22;20641;-69
2021/04/19 11:17:08;;;;;;;19.50;17.50;;;16.00;99.90;;;;;;6352188;22;20556;-68
2021/04/19 11:19:42;;;;;;;17.80;16.00;;;16.10;99.90;;;;;;6331601;22;20608;-69
2021/04/19 11:22:33;;;;;;;17.00;15.30;;;16.30;99.90;;;;;;6328660;22;20566;-69
2021/04/19 11:25:11;;;;;;;15.23;13.83;;;16.40;99.90;;;;;;6351137;22;20559;-69
2021/04/19 11:27:37;;;;;;;14.07;12.70;;;16.50;99.90;;;;;;6353284;22;20611;-68
2021/04/19 11:30:15;;;;;;;15.17;13.77;;;16.70;99.90;;;;;;6355707;22;20666;-69
2021/04/19 11:32:43;;;;;;;14.30;13.00;;;16.80;99.90;;;;;;6347020;22;20137;-70
2021/04/19 11:35:23;;;;;;;14.17;12.87;;;16.90;99.90;;;;;;6321437;22;20900;-68
2021/04/19 11:37:58;;;;;;;13.30;12.00;;;17.00;99.90;;;;;;6350472;22;20527;-68
2021/04/19 11:40:40;;;;;;;13.10;11.90;;;17.10;99.90;;;;;;6352128;22;20494;-70
2021/04/19 11:43:22;;;;;;;14.23;12.93;;;17.20;99.90;;;;;;6356461;22;20583;-69
2021/04/19 11:45:59;;;;;;;13.00;11.80;;;17.40;99.90;;;;;;6347999;22;20506;-69
2021/04/19 11:48:28;;;;;;;12.30;11.20;;;17.60;99.90;;;;;;6352519;22;20523;-69
2021/04/19 11:50:53;;;;;;;11.93;10.73;;;17.70;99.90;;;;;;6324106;22;20621;-69
2021/04/19 11:53:25;;;;;;;11.60;10.50;;;17.70;99.90;;;;;;6351890;22;20950;-68
2021/04/19 11:55:52;;;;;;;10.67;9.67;;;17.80;99.90;;;;;;6331327;22;20152;-69
2021/04/19 11:58:18;;;;;;;10.23;9.40;;;17.90;99.90;;;;;;6333614;22;21083;-69
2021/04/19 12:00:44;;;;;;;11.03;9.93;;;18.00;99.90;;;;;;6358423;22;20579;-68
2021/04/19 12:03:12;;;;;;;9.90;8.90;;;18.10;99.90;;;;;;6332301;22;20665;-69
2021/04/19 12:05:38;;;;;;;9.20;8.50;;;18.20;99.90;;;;;;6333350;22;20173;-68
2021/04/19 12:08:04;;;;;;;8.77;8.07;;;18.30;99.90;;;;;;6327360;22;20592;-68
2021/04/19 12:10:31;;;;;;;8.47;7.70;;;18.40;99.90;;;;;;6355149;22;20180;-69
2021/04/19 12:12:57;;;;;;;7.40;6.80;;;18.50;99.90;;;;;;6327986;22;20939;-69
2021/04/19 12:15:24;;;;;;;7.40;6.90;;;18.70;99.90;;;;;;6357313;22;20530;-69
2021/04/19 12:17:52;;;;;;;7.90;7.10;;;18.80;99.90;;;;;;6354654;22;20240;-68
2021/04/19 12:20:18;;;;;;;7.43;6.80;;;18.90;99.90;;;;;;6358473;22;20531;-69
2021/04/19 12:22:44;;;;;;;6.10;5.60;;;19.00;99.90;;;;;;6352410;22;20562;-69
2021/04/19 12:25:10;;;;;;;6.87;6.20;;;19.20;99.90;;;;;;6357612;22;20153;-70
2021/04/19 12:27:35;;;;;;;7.37;6.77;;;19.30;99.90;;;;;;6352096;22;20149;-69
2021/04/19 12:30:02;;;;;;;7.00;6.50;;;19.60;99.90;;;;;;6355545;22;21155;-69
2021/04/19 12:32:28;;;;;;;7.00;6.50;;;19.70;99.90;;;;;;6357019;22;20157;-69
2021/04/19 12:34:53;;;;;;;7.50;6.90;;;19.80;99.90;;;;;;6356251;22;21130;-70
2021/04/19 12:37:19;;;;;;;6.20;5.70;;;19.90;99.90;;;;;;6357424;22;20157;-69
2021/04/19 12:39:44;;;;;;;6.80;6.30;;;20.10;99.90;;;;;;6358375;22;20924;-69
2021/04/19 12:42:12;;;;;;;6.97;6.37;;;20.20;99.90;;;;;;6354142;22;20175;-69
2021/04/19 12:44:38;;;;;;;6.73;6.13;;;20.30;99.90;;;;;;6354830;22;20216;-70
2021/04/19 12:47:03;;;;;;;7.00;6.43;;;20.40;99.90;;;;;;6323242;22;20566;-68
2021/04/19 12:49:29;;;;;;;6.20;5.60;;;20.50;99.90;;;;;;6353930;22;20268;-69
2021/04/19 12:51:54;;;;;;;6.23;5.73;;;20.60;99.90;;;;;;6351068;22;20157;-70
2021/04/19 12:54:21;;;;;;;6.50;5.90;;;20.70;99.90;;;;;;6360531;22;20194;-70